createdAt,value
2017-11-04T00:03:58.819Z,1008.8
2017-11-04T00:14:12.678Z,1008.4
2017-11-04T00:24:26.673Z,1008.4
2017-11-04T00:34:40.342Z,1008.3
2017-11-04T00:44:54.307Z,1008.2
2017-11-04T00:55:08.002Z,1008.1
2017-11-04T01:05:21.906Z,1008.0
2017-11-04T01:15:35.707Z,1008.0
2017-11-04T01:25:48.586Z,1007.9
2017-11-04T01:36:01.870Z,1007.8
2017-11-04T01:46:15.185Z,1007.8
2017-11-04T01:56:28.847Z,1007.5
2017-11-04T02:06:42.753Z,1007.5
2017-11-04T02:16:56.475Z,1007.4
2017-11-04T02:27:41.961Z,1007.1
2017-11-04T02:37:55.340Z,1007.0
2017-11-04T02:48:06.811Z,1007.0
2017-11-04T02:58:20.896Z,1006.9
2017-11-04T03:08:35.000Z,1007.0
2017-11-04T03:19:20.416Z,1006.8
2017-11-04T03:30:22.945Z,1006.8
2017-11-04T03:40:36.656Z,1006.7
2017-11-04T03:50:50.201Z,1006.6
2017-11-04T04:01:04.254Z,1006.5
2017-11-04T04:11:17.695Z,1006.4
2017-11-04T04:22:03.387Z,1006.4
2017-11-04T04:32:16.670Z,1006.4
2017-11-04T04:42:29.841Z,1006.3
2017-11-04T04:53:14.509Z,1006.2
2017-11-04T05:03:29.152Z,1006.1
2017-11-04T05:14:14.722Z,1005.9
2017-11-04T05:24:30.515Z,1005.9
2017-11-04T05:34:44.153Z,1005.9
2017-11-04T05:44:58.463Z,1005.7
2017-11-04T05:55:12.556Z,1005.7
2017-11-04T06:05:26.035Z,1005.7
2017-11-04T06:15:40.044Z,1005.5
2017-11-04T06:25:54.152Z,1005.5
2017-11-04T06:36:07.457Z,1005.4
2017-11-04T06:46:52.425Z,1005.3
2017-11-04T06:57:06.612Z,1005.3
2017-11-04T07:08:12.452Z,1005.2
2017-11-04T07:18:26.382Z,1005.2
2017-11-04T07:29:11.150Z,1005.0
2017-11-04T07:39:55.839Z,1005.1
2017-11-04T07:50:09.211Z,1005.0
2017-11-04T08:00:23.579Z,1004.9
2017-11-04T08:11:11.132Z,1004.7
2017-11-04T08:21:22.598Z,1004.8
2017-11-04T08:31:37.207Z,1004.7
2017-11-04T08:41:50.888Z,1004.6
2017-11-04T08:52:05.726Z,1004.4
2017-11-04T09:02:52.170Z,1004.3
2017-11-04T09:13:06.250Z,1004.0
2017-11-04T09:23:20.423Z,1004.0
2017-11-04T09:33:31.865Z,1003.9
2017-11-04T09:43:46.038Z,1003.8
2017-11-04T09:54:31.426Z,1003.7
2017-11-04T10:05:16.309Z,1003.5
2017-11-04T10:15:30.591Z,1003.5
2017-11-04T10:25:44.793Z,1003.1
2017-11-04T10:36:30.388Z,1002.7
2017-11-04T10:47:14.993Z,1002.4
2017-11-04T10:57:28.711Z,1002.0
2017-11-04T11:07:42.807Z,1001.8
2017-11-04T11:17:57.046Z,1001.5
2017-11-04T11:28:42.562Z,1001.2
2017-11-04T11:38:56.548Z,1001.4
2017-11-04T11:49:46.392Z,1001.4
2017-11-04T12:00:33.399Z,1000.9
2017-11-04T12:10:47.711Z,1000.7
2017-11-04T12:21:01.886Z,1000.8
2017-11-04T12:31:16.237Z,1000.4
2017-11-04T12:41:30.306Z,1000.3
2017-11-04T12:51:44.606Z,1000.3
2017-11-04T13:01:58.647Z,999.8
2017-11-04T13:12:12.961Z,999.6
2017-11-04T13:23:03.827Z,1000.6
2017-11-04T13:33:51.801Z,1000.8
2017-11-04T13:44:44.895Z,1000.8
2017-11-04T13:55:32.742Z,1000.7
2017-11-04T14:06:22.003Z,1000.0
2017-11-04T14:16:51.520Z,999.0
2017-11-04T14:27:07.685Z,999.2
2017-11-04T14:37:21.973Z,999.1
2017-11-04T14:48:33.811Z,998.9
2017-11-04T14:58:51.870Z,998.8
2017-11-04T15:09:06.264Z,998.8
2017-11-04T15:19:20.188Z,998.9
2017-11-04T15:29:34.377Z,998.9
2017-11-04T15:40:19.342Z,998.8
2017-11-04T15:50:33.596Z,998.8
2017-11-04T16:00:47.854Z,999.0
2017-11-04T16:11:02.027Z,999.2
2017-11-04T16:21:16.483Z,999.2
2017-11-04T16:31:30.222Z,999.1
2017-11-04T16:42:17.194Z,999.0
2017-11-04T16:53:02.797Z,999.1
2017-11-04T17:03:16.196Z,999.1
2017-11-04T17:14:02.085Z,998.9
2017-11-04T17:24:47.681Z,999.0
2017-11-04T17:35:38.614Z,998.9
2017-11-04T17:45:58.021Z,998.8
2017-11-04T17:56:44.834Z,998.7
2017-11-04T18:07:30.462Z,998.8
2017-11-04T18:17:44.776Z,998.8
2017-11-04T18:28:04.805Z,998.8
2017-11-04T18:38:21.086Z,998.8
2017-11-04T18:49:09.642Z,998.8
2017-11-04T18:59:24.664Z,998.9
2017-11-04T19:09:38.051Z,998.9
2017-11-04T19:20:33.005Z,999.0
2017-11-04T19:30:51.566Z,998.9
2017-11-04T19:41:42.895Z,998.9
2017-11-04T19:52:03.722Z,999.0
2017-11-04T20:02:29.990Z,998.8
2017-11-04T20:13:29.316Z,999.0
2017-11-04T20:23:44.025Z,999.0
2017-11-04T20:34:02.355Z,998.9
2017-11-04T20:44:19.148Z,999.0
2017-11-04T20:54:35.423Z,999.0
2017-11-04T21:04:53.737Z,999.2
2017-11-04T21:15:39.361Z,999.2
2017-11-04T21:25:53.445Z,999.2
2017-11-04T21:36:07.700Z,999.3
2017-11-04T21:46:22.011Z,999.3
2017-11-04T21:56:36.721Z,999.6
2017-11-04T22:06:48.251Z,999.5
2017-11-04T22:17:02.307Z,999.6
2017-11-04T22:27:16.576Z,999.6
2017-11-04T22:37:31.812Z,999.6
2017-11-04T22:47:42.872Z,999.5
2017-11-04T22:57:57.161Z,999.6
2017-11-04T23:08:11.618Z,999.8
2017-11-04T23:18:26.525Z,999.9
2017-11-04T23:28:41.449Z,1000.0
2017-11-04T23:38:55.338Z,1000.1
2017-11-04T23:49:40.603Z,1000.1
